createdAt,value
2023-07-03T00:00:43.496Z,100861.19
2023-07-03T00:03:15.084Z,100844.63
2023-07-03T00:05:44.321Z,100859.69
2023-07-03T00:08:12.203Z,100851.41
2023-07-03T00:10:39.986Z,100845.66
2023-07-03T00:13:09.967Z,100837.13
2023-07-03T00:15:38.360Z,100839.63
2023-07-03T00:18:06.217Z,100828.34
2023-07-03T00:20:34.155Z,100830.63
2023-07-03T00:23:02.854Z,100829.59
2023-07-03T00:25:30.720Z,100829.59
2023-07-03T00:27:58.524Z,100838.84
2023-07-03T00:30:27.806Z,100834.34
2023-07-03T00:32:55.652Z,100823.56
2023-07-03T00:35:23.519Z,100825.06
2023-07-03T00:37:51.347Z,100828.03
2023-07-03T00:40:19.354Z,100836.56
2023-07-03T00:42:47.142Z,100837.81
2023-07-03T00:45:14.930Z,100832.53
2023-07-03T00:47:44.410Z,100827.25
2023-07-03T00:50:12.345Z,100837.78
2023-07-03T00:52:42.369Z,100828.25
2023-07-03T00:55:14.717Z,100826.78
2023-07-03T00:57:42.578Z,100824.50
2023-07-03T01:00:11.751Z,100835.78
2023-07-03T01:02:44.644Z,100840.25
2023-07-03T01:05:19.768Z,100830.50
2023-07-03T01:07:49.040Z,100836.50
2023-07-03T01:10:20.792Z,100829.50
2023-07-03T01:12:57.399Z,100830.72
2023-07-03T01:15:29.336Z,100835.22
2023-07-03T01:17:59.980Z,100822.72
2023-07-03T01:20:34.124Z,100828.47
2023-07-03T01:23:07.297Z,100828.72
2023-07-03T01:25:39.385Z,100835.44
2023-07-03T01:28:09.885Z,100832.66
2023-07-03T01:30:42.109Z,100829.13
2023-07-03T01:33:15.432Z,100827.38
2023-07-03T01:35:43.528Z,100818.38
2023-07-03T01:38:11.959Z,100811.34
2023-07-03T01:40:42.083Z,100814.06
2023-07-03T01:43:11.278Z,100814.31
2023-07-03T01:45:43.080Z,100818.06
2023-07-03T01:48:11.010Z,100811.78
2023-07-03T01:50:41.150Z,100804.53
2023-07-03T01:53:16.799Z,100807.53
2023-07-03T01:55:52.065Z,100808.75
2023-07-03T01:58:31.068Z,100806.00
2023-07-03T02:01:04.087Z,100805.00
2023-07-03T02:03:37.397Z,100807.00
2023-07-03T02:06:10.128Z,100805.47
2023-07-03T02:08:38.188Z,100811.25
2023-07-03T02:11:14.745Z,100809.97
2023-07-03T02:13:42.603Z,100808.22
2023-07-03T02:16:10.627Z,100805.94
2023-07-03T02:18:38.474Z,100809.44
2023-07-03T02:21:07.149Z,100808.47
2023-07-03T02:23:36.113Z,100811.97
2023-07-03T02:26:03.943Z,100810.97
2023-07-03T02:28:33.139Z,100810.00
2023-07-03T02:31:00.986Z,100805.78
2023-07-03T02:33:28.818Z,100812.03
2023-07-03T02:35:56.622Z,100812.56
2023-07-03T02:38:24.432Z,100815.31
2023-07-03T02:40:52.217Z,100806.06
2023-07-03T02:43:20.058Z,100808.34
2023-07-03T02:45:50.248Z,100806.31
2023-07-03T02:48:20.365Z,100804.81
2023-07-03T02:50:53.569Z,100800.28
2023-07-03T02:53:21.587Z,100806.06
2023-07-03T02:55:50.778Z,100808.34
2023-07-03T02:58:20.345Z,100811.56
2023-07-03T03:00:50.228Z,100814.31
2023-07-03T03:03:18.404Z,100798.81
2023-07-03T03:05:46.323Z,100807.06
2023-07-03T03:08:14.150Z,100799.56
2023-07-03T03:10:42.034Z,100805.53
2023-07-03T03:13:09.853Z,100803.28
2023-07-03T03:15:38.104Z,100794.78
2023-07-03T03:18:07.361Z,100803.28
2023-07-03T03:20:35.208Z,100798.28
2023-07-03T03:23:03.056Z,100811.28
2023-07-03T03:25:31.118Z,100801.50
2023-07-03T03:28:00.594Z,100802.53
2023-07-03T03:30:28.486Z,100809.03
2023-07-03T03:32:56.454Z,100801.25
2023-07-03T03:35:25.692Z,100805.53
2023-07-03T03:37:53.728Z,100802.03
2023-07-03T03:40:21.523Z,100801.75
2023-07-03T03:42:49.581Z,100802.25
2023-07-03T03:47:48.592Z,100801.75
2023-07-03T03:50:17.513Z,100798.25
2023-07-03T03:52:46.948Z,100798.00
2023-07-03T03:55:15.012Z,100797.75
2023-07-03T03:57:42.858Z,100791.75
2023-07-03T04:00:16.781Z,100788.50
2023-07-03T04:02:45.688Z,100805.00
2023-07-03T04:05:13.667Z,100799.00
2023-07-03T04:07:41.635Z,100807.25
2023-07-03T04:10:11.682Z,100804.72
2023-07-03T04:12:39.579Z,100810.25
2023-07-03T04:15:09.247Z,100815.75
2023-07-03T04:17:37.333Z,100815.22
2023-07-03T04:20:08.658Z,100821.97
2023-07-03T04:22:36.446Z,100831.72
2023-07-03T04:25:04.446Z,100829.47
2023-07-03T04:27:33.653Z,100829.47
2023-07-03T04:30:01.905Z,100830.44
2023-07-03T04:32:29.790Z,100825.72
2023-07-03T04:34:58.602Z,100827.22
2023-07-03T04:37:27.623Z,100830.22
2023-07-03T04:39:55.510Z,100831.25
2023-07-03T04:42:23.380Z,100832.72
2023-07-03T04:44:52.643Z,100835.25
2023-07-03T04:47:20.729Z,100836.75
2023-07-03T04:49:49.251Z,100842.53
2023-07-03T04:52:18.112Z,100841.56
2023-07-03T04:54:45.959Z,100848.06
2023-07-03T04:57:13.889Z,100835.81
2023-07-03T04:59:43.319Z,100838.56
2023-07-03T05:02:13.529Z,100837.56
2023-07-03T05:04:41.380Z,100841.63
2023-07-03T05:07:09.218Z,100837.91
2023-07-03T05:09:37.239Z,100839.19
2023-07-03T05:12:05.743Z,100852.69
2023-07-03T05:14:33.636Z,100847.44
2023-07-03T05:17:01.406Z,100852.22
2023-07-03T05:19:30.855Z,100843.72
2023-07-03T05:21:58.678Z,100848.72
2023-07-03T05:24:26.438Z,100846.75
2023-07-03T05:26:54.478Z,100847.00
2023-07-03T05:29:22.275Z,100851.53
2023-07-03T05:31:50.224Z,100857.78
2023-07-03T05:34:18.076Z,100860.31
2023-07-03T05:36:48.957Z,100858.56
2023-07-03T05:39:16.649Z,100860.31
2023-07-03T05:41:44.481Z,100866.56
2023-07-03T05:44:12.309Z,100866.06
2023-07-03T05:46:40.117Z,100861.31
2023-07-03T05:49:07.947Z,100862.84
2023-07-03T05:51:35.746Z,100865.34
2023-07-03T05:54:05.180Z,100860.09
2023-07-03T05:56:32.986Z,100853.59
2023-07-03T05:59:01.199Z,100866.88
2023-07-03T06:01:29.694Z,100872.13
2023-07-03T06:03:57.616Z,100863.63
2023-07-03T06:06:25.593Z,100866.16
2023-07-03T06:08:53.385Z,100867.41
2023-07-03T06:11:22.632Z,100858.63
2023-07-03T06:13:50.417Z,100864.66
2023-07-03T06:16:18.240Z,100872.94
2023-07-03T06:18:46.055Z,100879.72
2023-07-03T06:21:13.873Z,100873.94
2023-07-03T06:23:41.703Z,100875.94
2023-07-03T06:26:09.562Z,100871.66
2023-07-03T06:28:38.944Z,100875.94
2023-07-03T06:31:06.799Z,100877.22
2023-07-03T06:33:34.620Z,100882.19
2023-07-03T06:36:02.433Z,100878.97
2023-07-03T06:38:30.207Z,100886.47
2023-07-03T06:40:58.656Z,100880.72
2023-07-03T06:43:26.815Z,100880.00
2023-07-03T06:45:58.324Z,100875.47
2023-07-03T06:48:26.727Z,100878.22
2023-07-03T06:51:03.220Z,100876.25
2023-07-03T06:53:31.067Z,100880.28
2023-07-03T06:55:59.473Z,100880.03
2023-07-03T06:58:28.653Z,100877.78
2023-07-03T07:00:58.375Z,100885.81
2023-07-03T07:03:26.548Z,100894.81
2023-07-03T07:05:56.831Z,100883.53
2023-07-03T07:08:25.214Z,100880.00
2023-07-03T07:10:53.023Z,100886.28
2023-07-03T07:13:22.515Z,100873.75
2023-07-03T07:15:50.487Z,100879.25
2023-07-03T07:18:19.962Z,100887.75
2023-07-03T07:20:47.787Z,100877.94
2023-07-03T07:23:15.641Z,100873.94
2023-07-03T07:25:43.416Z,100882.44
2023-07-03T07:28:11.254Z,100896.22
2023-07-03T07:30:39.168Z,100890.72
2023-07-03T07:33:07.153Z,100891.94
2023-07-03T07:35:37.684Z,100893.19
2023-07-03T07:38:05.551Z,100894.44
2023-07-03T07:40:33.385Z,100897.69
2023-07-03T07:43:01.211Z,100893.19
2023-07-03T07:45:28.985Z,100880.91
2023-07-03T07:47:56.882Z,100891.00
2023-07-03T07:50:24.759Z,100902.31
2023-07-03T07:52:53.976Z,100901.31
2023-07-03T07:55:21.764Z,100901.28
2023-07-03T07:57:50.284Z,100905.03
2023-07-03T08:00:18.942Z,100902.78
2023-07-03T08:02:46.863Z,100902.25
2023-07-03T08:05:14.896Z,100902.47
2023-07-03T08:07:42.805Z,100902.16
2023-07-03T08:10:12.963Z,100893.78
2023-07-03T08:12:43.114Z,100900.44
2023-07-03T08:15:12.323Z,100884.81
2023-07-03T08:17:40.674Z,100890.66
2023-07-03T08:20:12.530Z,100888.50
2023-07-03T08:22:40.798Z,100895.06
2023-07-03T08:25:10.516Z,100899.84
2023-07-03T08:27:39.718Z,100912.41
2023-07-03T08:30:09.080Z,100910.19
2023-07-03T08:32:37.074Z,100901.19
2023-07-03T08:37:36.196Z,100909.28
2023-07-03T08:40:06.328Z,100913.81
2023-07-03T08:42:37.789Z,100912.81
2023-07-03T08:45:11.215Z,100924.13
2023-07-03T08:47:41.971Z,100915.59
2023-07-03T08:50:14.786Z,100924.38
2023-07-03T08:52:52.096Z,100925.66
2023-07-03T08:55:24.001Z,100924.88
2023-07-03T08:57:51.969Z,100935.94
2023-07-03T09:00:22.403Z,100922.59
2023-07-03T09:02:58.284Z,100935.66
2023-07-03T09:05:36.525Z,100922.34
2023-07-03T09:08:07.652Z,100926.63
2023-07-03T09:10:40.442Z,100921.81
2023-07-03T09:13:13.727Z,100930.84
2023-07-03T09:15:47.573Z,100944.69
2023-07-03T09:18:18.992Z,100931.63
2023-07-03T09:20:48.076Z,100931.84
2023-07-03T09:23:22.103Z,100933.38
2023-07-03T09:25:56.139Z,100933.88
2023-07-03T09:28:25.375Z,100925.53
2023-07-03T09:30:55.152Z,100930.69
2023-07-03T09:33:26.072Z,100935.81
2023-07-03T09:35:57.893Z,100931.06
2023-07-03T09:38:27.162Z,100934.59
2023-07-03T09:40:58.665Z,100917.19
2023-07-03T09:43:30.548Z,100939.03
2023-07-03T09:46:08.744Z,100939.28
2023-07-03T09:48:37.407Z,100935.91
2023-07-03T09:51:08.648Z,100941.00
2023-07-03T09:53:41.230Z,100948.56
2023-07-03T09:56:16.365Z,100949.91
2023-07-03T09:58:49.381Z,100953.69
2023-07-03T10:04:04.200Z,100954.44
2023-07-03T10:07:00.004Z,100955.06
2023-07-03T10:12:10.476Z,100952.53
2023-07-03T10:14:44.864Z,100966.38
2023-07-03T10:17:14.983Z,100959.63
2023-07-03T10:19:48.380Z,100960.16
2023-07-03T10:22:17.340Z,100952.69
2023-07-03T10:24:46.057Z,100964.47
2023-07-03T10:27:14.507Z,100975.22
2023-07-03T10:29:47.313Z,100971.44
2023-07-03T10:32:20.947Z,100964.16
2023-07-03T10:34:55.339Z,100974.13
2023-07-03T10:37:24.681Z,100963.84
2023-07-03T10:39:55.257Z,100964.75
2023-07-03T10:42:27.928Z,100962.13
2023-07-03T10:45:10.161Z,100954.34
2023-07-03T10:47:48.259Z,100969.97
2023-07-03T10:50:17.644Z,100980.63
2023-07-03T10:52:55.408Z,100974.66
2023-07-03T10:55:29.952Z,100979.38
2023-07-03T10:58:10.299Z,100980.97
2023-07-03T11:00:47.651Z,100979.31
2023-07-03T11:03:24.115Z,100985.19
2023-07-03T11:06:00.568Z,100981.25
2023-07-03T11:08:37.754Z,100989.59
2023-07-03T11:11:13.982Z,100978.84
2023-07-03T11:13:52.794Z,100989.63
2023-07-03T11:16:29.616Z,100989.91
2023-07-03T11:24:35.398Z,100991.13
2023-07-03T11:29:43.382Z,100984.63
2023-07-03T11:32:14.274Z,100990.63
2023-07-03T11:40:30.793Z,100981.72
2023-07-03T11:46:08.622Z,100969.56
2023-07-03T11:48:46.580Z,100962.22
2023-07-03T11:51:18.022Z,100981.69
2023-07-03T11:53:48.941Z,100972.69
2023-07-03T11:56:54.705Z,100967.97
2023-07-03T11:59:41.856Z,100972.91
2023-07-03T12:02:46.644Z,100988.63
2023-07-03T12:05:48.208Z,100979.78
2023-07-03T12:08:43.026Z,100974.22
2023-07-03T12:11:13.950Z,100984.53
2023-07-03T12:13:52.087Z,100982.66
2023-07-03T12:16:22.875Z,100986.50
2023-07-03T12:18:58.840Z,100986.53
2023-07-03T12:21:27.378Z,100990.50
2023-07-03T12:23:56.547Z,100994.50
2023-07-03T12:26:24.955Z,100979.91
2023-07-03T12:29:04.209Z,100980.31
2023-07-03T12:31:32.232Z,100985.50
2023-07-03T12:34:01.843Z,100979.78
2023-07-03T12:36:34.570Z,100979.25
2023-07-03T12:39:13.178Z,100988.03
2023-07-03T12:41:41.293Z,100981.19
2023-07-03T12:44:11.663Z,100977.00
2023-07-03T12:46:41.516Z,100974.28
2023-07-03T12:49:12.510Z,100984.59
2023-07-03T12:51:42.977Z,100985.28
2023-07-03T12:54:14.270Z,100992.84
2023-07-03T12:56:45.097Z,101002.47
2023-07-03T12:59:13.863Z,100989.16
2023-07-03T13:01:42.331Z,100979.72
2023-07-03T13:04:11.057Z,100993.84
2023-07-03T13:06:38.986Z,100986.44
2023-07-03T13:09:13.681Z,100993.38
2023-07-03T13:11:45.749Z,101004.63
2023-07-03T13:14:18.858Z,100996.75
2023-07-03T13:16:48.580Z,100988.03
2023-07-03T13:19:31.722Z,100990.31
2023-07-03T13:22:01.074Z,100994.94
2023-07-03T13:24:30.219Z,100990.28
2023-07-03T13:27:00.571Z,100986.81
2023-07-03T13:29:32.087Z,100985.53
2023-07-03T13:32:17.125Z,100994.13
2023-07-03T13:34:57.492Z,101000.13
2023-07-03T13:37:26.703Z,100999.16
2023-07-03T13:40:00.984Z,100990.69
2023-07-03T13:42:32.067Z,100991.97
2023-07-03T13:45:00.013Z,101005.31
2023-07-03T13:47:29.446Z,101020.97
2023-07-03T13:49:57.820Z,101017.78
2023-07-03T13:52:25.676Z,101003.00
2023-07-03T13:54:53.526Z,101010.59
2023-07-03T13:57:21.368Z,101036.50
2023-07-03T13:59:50.548Z,101017.91
2023-07-03T14:02:18.445Z,101003.34
2023-07-03T14:04:46.318Z,101020.66
2023-07-03T14:07:14.220Z,101011.25
2023-07-03T14:09:42.414Z,101008.63
2023-07-03T14:12:10.742Z,101005.91
2023-07-03T14:14:38.560Z,101007.81
2023-07-03T14:17:08.396Z,100996.81
2023-07-03T14:19:36.213Z,100992.16
2023-07-03T14:22:04.083Z,101002.00
2023-07-03T14:24:31.964Z,100987.25
2023-07-03T14:27:00.734Z,100991.56
2023-07-03T14:29:28.524Z,100992.28
2023-07-03T14:31:56.489Z,100977.31
2023-07-03T14:34:26.612Z,100973.22
2023-07-03T14:36:54.435Z,100971.59
2023-07-03T14:39:22.254Z,100975.75
2023-07-03T14:41:50.063Z,100972.78
2023-07-03T14:44:17.880Z,100977.34
2023-07-03T14:46:45.742Z,100968.63
2023-07-03T14:49:14.898Z,100980.22
2023-07-03T14:51:44.134Z,100973.75
2023-07-03T14:54:26.310Z,100973.78
2023-07-03T14:57:32.321Z,100978.31
2023-07-03T15:00:00.232Z,100985.13
2023-07-03T15:02:28.461Z,100978.38
2023-07-03T15:04:56.317Z,100967.13
2023-07-03T15:07:25.532Z,100976.41
2023-07-03T15:09:53.373Z,100974.91
2023-07-03T15:12:21.482Z,100966.13
2023-07-03T15:14:49.545Z,100967.13
2023-07-03T15:17:17.429Z,100986.47
2023-07-03T15:19:45.393Z,100956.06
2023-07-03T15:22:13.586Z,100951.72
2023-07-03T15:24:44.303Z,100950.69
2023-07-03T15:27:12.319Z,100945.16
2023-07-03T15:29:40.242Z,100950.88
2023-07-03T15:32:09.159Z,100958.59
2023-07-03T15:34:36.946Z,100951.50
2023-07-03T15:37:04.852Z,100951.34
2023-07-03T15:39:32.711Z,100945.94
2023-07-03T15:42:01.925Z,100955.97
2023-07-03T15:44:29.868Z,100950.91
2023-07-03T15:46:57.820Z,100950.91
2023-07-03T15:49:25.703Z,100944.06
2023-07-03T15:51:53.481Z,100941.47
2023-07-03T15:54:21.358Z,100949.28
2023-07-03T15:56:50.407Z,100956.59
2023-07-03T15:59:19.577Z,100943.28
2023-07-03T16:01:47.434Z,100942.53
2023-07-03T16:04:15.245Z,100939.69
2023-07-03T16:06:43.052Z,100930.06
2023-07-03T16:09:10.893Z,100940.03
2023-07-03T16:11:38.735Z,100931.31
2023-07-03T16:14:06.585Z,100926.81
2023-07-03T16:16:35.812Z,100922.75
2023-07-03T16:19:04.728Z,100917.00
2023-07-03T16:21:34.458Z,100919.75
2023-07-03T16:24:05.084Z,100912.03
2023-07-03T16:26:32.897Z,100921.38
2023-07-03T16:29:08.283Z,100916.06
2023-07-03T16:31:39.326Z,100914.78
2023-07-03T16:34:07.127Z,100908.00
2023-07-03T16:36:34.921Z,100900.38
2023-07-03T16:39:04.927Z,100903.13
2023-07-03T16:41:35.799Z,100898.66
2023-07-03T16:44:04.492Z,100887.13
2023-07-03T16:46:32.673Z,100884.31
2023-07-03T16:49:01.946Z,100889.22
2023-07-03T16:51:30.136Z,100874.84
2023-07-03T16:53:58.114Z,100892.63
2023-07-03T16:56:27.940Z,100875.50
2023-07-03T16:58:58.100Z,100880.53
2023-07-03T17:01:28.108Z,100872.50
2023-07-03T17:03:57.511Z,100871.78
2023-07-03T17:06:31.555Z,100880.09
2023-07-03T17:08:59.952Z,100874.34
2023-07-03T17:11:27.906Z,100867.28
2023-07-03T17:13:56.202Z,100868.56
2023-07-03T17:16:24.341Z,100868.63
2023-07-03T17:18:52.146Z,100861.88
2023-07-03T17:21:19.982Z,100866.91
2023-07-03T17:23:58.564Z,100852.81
2023-07-03T17:26:26.466Z,100861.63
2023-07-03T17:28:54.294Z,100846.31
2023-07-03T17:31:25.013Z,100858.41
2023-07-03T17:33:53.161Z,100845.16
2023-07-03T17:36:21.334Z,100849.41
2023-07-03T17:38:50.765Z,100838.84
2023-07-03T17:41:20.125Z,100836.09
2023-07-03T17:43:48.654Z,100840.41
2023-07-03T17:46:17.790Z,100838.41
2023-07-03T17:48:45.701Z,100827.84
2023-07-03T17:51:13.612Z,100825.31
2023-07-03T17:53:42.238Z,100817.28
2023-07-03T17:56:11.480Z,100820.63
2023-07-03T17:58:39.539Z,100811.06
2023-07-03T18:01:07.504Z,100832.47
2023-07-03T18:03:35.560Z,100819.13
2023-07-03T18:06:03.601Z,100820.19
2023-07-03T18:08:31.456Z,100806.56
2023-07-03T18:10:59.802Z,100814.34
2023-07-03T18:13:29.276Z,100811.34
2023-07-03T18:15:57.673Z,100806.13
2023-07-03T18:18:25.754Z,100805.41
2023-07-03T18:20:53.620Z,100804.66
2023-07-03T18:23:21.452Z,100803.91
2023-07-03T18:25:49.619Z,100807.44
2023-07-03T18:28:18.701Z,100800.91
2023-07-03T18:30:57.949Z,100800.44
2023-07-03T18:33:25.849Z,100792.66
2023-07-03T18:35:53.769Z,100804.75
2023-07-03T18:38:21.655Z,100806.75
2023-07-03T18:40:49.476Z,100807.75
2023-07-03T18:43:17.340Z,100817.53
2023-07-03T18:45:48.815Z,100806.75
2023-07-03T18:48:18.176Z,100805.53
2023-07-03T18:50:45.980Z,100809.84
2023-07-03T18:53:14.238Z,100817.16
2023-07-03T18:55:46.896Z,100814.16
2023-07-03T18:58:14.759Z,100819.75
2023-07-03T19:00:42.645Z,100824.06
2023-07-03T19:03:10.988Z,100831.88
2023-07-03T19:05:51.046Z,100839.91
2023-07-03T19:08:19.450Z,100843.22
2023-07-03T19:10:47.309Z,100839.50
2023-07-03T19:13:15.216Z,100837.81
2023-07-03T19:15:43.068Z,100816.25
2023-07-03T19:18:11.863Z,100834.09
2023-07-03T19:20:41.437Z,100836.22
2023-07-03T19:23:10.133Z,100848.81
2023-07-03T19:25:38.014Z,100846.34
2023-07-03T19:28:05.905Z,100852.88
2023-07-03T19:30:33.874Z,100853.41
2023-07-03T19:33:01.875Z,100874.47
2023-07-03T19:35:31.016Z,100875.78
2023-07-03T19:38:00.390Z,100894.53
2023-07-03T19:40:28.304Z,100894.72
2023-07-03T19:42:56.170Z,100893.44
2023-07-03T19:45:23.985Z,100897.13
2023-07-03T19:47:51.930Z,100914.78
2023-07-03T19:50:20.002Z,100908.66
2023-07-03T19:52:47.864Z,100901.28
2023-07-03T19:55:17.247Z,100901.41
2023-07-03T19:57:45.409Z,100889.03
2023-07-03T20:00:14.151Z,100887.25
2023-07-03T20:02:45.352Z,100897.91
2023-07-03T20:05:13.671Z,100890.09
2023-07-03T20:07:41.683Z,100885.53
2023-07-03T20:10:10.656Z,100892.94
2023-07-03T20:12:39.832Z,100879.56
2023-07-03T20:15:12.222Z,100878.47
2023-07-03T20:17:40.636Z,100881.63
2023-07-03T20:20:08.907Z,100872.63
2023-07-03T20:22:37.193Z,100873.63
2023-07-03T20:25:06.075Z,100875.88
2023-07-03T20:27:33.929Z,100871.59
2023-07-03T20:30:03.969Z,100880.63
2023-07-03T20:32:34.075Z,100874.63
2023-07-03T20:35:03.234Z,100886.63
2023-07-03T20:37:31.040Z,100887.38
2023-07-03T20:39:59.924Z,100897.16
2023-07-03T20:42:28.453Z,100898.16
2023-07-03T20:44:57.045Z,100913.41
2023-07-03T20:47:26.996Z,100915.78
2023-07-03T20:49:56.110Z,100906.28
2023-07-03T20:52:26.246Z,100912.59
2023-07-03T20:55:23.512Z,100909.63
2023-07-03T20:57:51.967Z,100895.34
2023-07-03T21:00:21.491Z,100899.81
2023-07-03T21:02:52.889Z,100905.59
2023-07-03T21:05:22.259Z,100896.59
2023-07-03T21:07:50.480Z,100893.56
2023-07-03T21:10:18.344Z,100906.34
2023-07-03T21:12:46.544Z,100895.84
2023-07-03T21:15:14.691Z,100894.31
2023-07-03T21:17:42.617Z,100898.38
2023-07-03T21:20:12.862Z,100912.84
2023-07-03T21:22:40.670Z,100901.84
2023-07-03T21:25:09.351Z,100903.31
2023-07-03T21:27:37.149Z,100911.31
2023-07-03T21:30:05.886Z,100907.53
2023-07-03T21:32:33.725Z,100907.00
2023-07-03T21:35:01.975Z,100905.16
2023-07-03T21:37:32.683Z,100904.63
2023-07-03T21:40:00.568Z,100904.09
2023-07-03T21:42:28.369Z,100910.56
2023-07-03T21:44:56.168Z,100917.28
2023-07-03T21:47:24.299Z,100922.22
2023-07-03T21:49:52.117Z,100924.91
2023-07-03T21:52:19.927Z,100926.00
2023-07-03T21:54:49.898Z,100921.97
2023-07-03T21:57:19.315Z,100925.41
2023-07-03T21:59:50.176Z,100934.09
2023-07-03T22:02:18.096Z,100922.09
2023-07-03T22:04:46.174Z,100909.81
2023-07-03T22:07:14.359Z,100915.16
2023-07-03T22:09:42.303Z,100920.00
2023-07-03T22:12:12.084Z,100926.56
2023-07-03T22:14:40.286Z,100919.56
2023-07-03T22:17:08.147Z,100913.78
2023-07-03T22:19:37.552Z,100921.56
2023-07-03T22:22:08.375Z,100907.38
2023-07-03T22:24:36.184Z,100911.94
2023-07-03T22:27:05.094Z,100907.78
2023-07-03T22:29:34.349Z,100917.81
2023-07-03T22:32:02.163Z,100916.31
2023-07-03T22:34:29.997Z,100922.28
2023-07-03T22:36:57.852Z,100919.59
2023-07-03T22:39:25.638Z,100912.13
2023-07-03T22:41:54.381Z,100916.28
2023-07-03T22:44:22.210Z,100917.75
2023-07-03T22:46:53.137Z,100921.13
2023-07-03T22:49:25.454Z,100926.13
2023-07-03T22:51:53.908Z,100923.75
2023-07-03T22:54:22.582Z,100922.34
2023-07-03T22:56:50.421Z,100929.06
2023-07-03T22:59:18.249Z,100923.66
2023-07-03T23:01:48.705Z,100933.03
2023-07-03T23:04:18.496Z,100925.75
2023-07-03T23:06:48.148Z,100926.03
2023-07-03T23:09:17.492Z,100934.56
2023-07-03T23:11:45.414Z,100927.81
2023-07-03T23:14:16.009Z,100937.47
2023-07-03T23:16:44.905Z,100933.41
2023-07-03T23:19:12.845Z,100942.22
2023-07-03T23:21:42.356Z,100935.47
2023-07-03T23:24:10.726Z,100939.47
2023-07-03T23:26:39.295Z,100944.00
2023-07-03T23:29:08.888Z,100942.28
2023-07-03T23:31:37.406Z,100946.28
2023-07-03T23:34:06.577Z,100942.28
2023-07-03T23:36:35.596Z,100939.84
2023-07-03T23:39:05.955Z,100943.81
2023-07-03T23:41:33.804Z,100937.66
2023-07-03T23:44:01.583Z,100939.97
2023-07-03T23:46:29.494Z,100934.16
2023-07-03T23:48:57.499Z,100936.91
2023-07-03T23:51:25.319Z,100937.09
2023-07-03T23:53:53.133Z,100934.06
2023-07-03T23:56:22.339Z,100939.53
2023-07-03T23:58:51.398Z,100939.53
